sensor_id;sensor_type;location;lat;lon;timestamp;temperature;humidity
18779;DHT22;9518;51.720;14.384;2022-10-31T02:42:39;8.50;99.90
18779;DHT22;9518;51.720;14.384;2022-10-31T02:45:16;8.60;99.90
18779;DHT22;9518;51.720;14.384;2022-10-31T02:50:47;8.70;99.90
18779;DHT22;9518;51.720;14.384;2022-10-31T02:53:26;8.60;99.90
18779;DHT22;9518;51.720;14.384;2022-10-31T02:56:22;8.50;99.90
18779;DHT22;9518;51.720;14.384;2022-10-31T02:59:02;8.40;99.90
18779;DHT22;9518;51.720;14.384;2022-10-31T03:01:47;8.40;99.90
18779;DHT22;9518;51.720;14.384;2022-10-31T03:08:14;8.60;99.90
18779;DHT22;9518;51.720;14.384;2022-10-31T03:14:31;8.80;99.90
18779;DHT22;9518;51.720;14.384;2022-10-31T03:17:22;8.80;99.90
18779;DHT22;9518;51.720;14.384;2022-10-31T03:20:03;8.70;99.90
18779;DHT22;9518;51.720;14.384;2022-10-31T03:22:36;8.60;99.90
18779;DHT22;9518;51.720;14.384;2022-10-31T03:25:11;8.60;99.90
18779;DHT22;9518;51.720;14.384;2022-10-31T03:27:42;8.60;99.90
18779;DHT22;9518;51.720;14.384;2022-10-31T03:30:17;8.60;99.90
18779;DHT22;9518;51.720;14.384;2022-10-31T03:32:50;8.50;99.90
18779;DHT22;9518;51.720;14.384;2022-10-31T03:35:22;8.40;99.90
18779;DHT22;9518;51.720;14.384;2022-10-31T03:37:52;8.50;99.90
18779;DHT22;9518;51.720;14.384;2022-10-31T03:40:46;8.60;99.90
18779;DHT22;9518;51.720;14.384;2022-10-31T04:16:05;8.80;99.90
18779;DHT22;9518;51.720;14.384;2022-10-31T04:18:36;8.80;99.90
18779;DHT22;9518;51.720;14.384;2022-10-31T04:21:37;8.80;99.90
18779;DHT22;9518;51.720;14.384;2022-10-31T04:24:10;8.70;99.90
18779;DHT22;9518;51.720;14.384;2022-10-31T04:29:58;8.70;99.90
18779;DHT22;9518;51.720;14.384;2022-10-31T04:32:30;8.70;99.90
18779;DHT22;9518;51.720;14.384;2022-10-31T04:34:56;8.70;99.90
18779;DHT22;9518;51.720;14.384;2022-10-31T04:37:23;8.70;99.90
18779;DHT22;9518;51.720;14.384;2022-10-31T04:39:51;8.70;99.90
18779;DHT22;9518;51.720;14.384;2022-10-31T04:42:32;8.80;99.90
18779;DHT22;9518;51.720;14.384;2022-10-31T04:44:59;8.80;99.90
18779;DHT22;9518;51.720;14.384;2022-10-31T04:47:39;8.70;99.90
18779;DHT22;9518;51.720;14.384;2022-10-31T04:50:37;8.80;99.90
18779;DHT22;9518;51.720;14.384;2022-10-31T04:53:18;8.80;99.90
18779;DHT22;9518;51.720;14.384;2022-10-31T04:55:47;8.80;99.90
18779;DHT22;9518;51.720;14.384;2022-10-31T04:58:16;8.70;99.90
18779;DHT22;9518;51.720;14.384;2022-10-31T05:00:58;8.70;99.90
18779;DHT22;9518;51.720;14.384;2022-10-31T05:03:27;8.70;99.90
18779;DHT22;9518;51.720;14.384;2022-10-31T05:06:03;8.70;99.90
18779;DHT22;9518;51.720;14.384;2022-10-31T05:08:31;8.70;99.90
18779;DHT22;9518;51.720;14.384;2022-10-31T05:10:59;8.70;99.90
18779;DHT22;9518;51.720;14.384;2022-10-31T05:13:27;8.70;99.90
18779;DHT22;9518;51.720;14.384;2022-10-31T05:15:56;8.70;99.90
18779;DHT22;9518;51.720;14.384;2022-10-31T05:18:30;8.80;99.90
18779;DHT22;9518;51.720;14.384;2022-10-31T05:20:57;8.70;99.90
18779;DHT22;9518;51.720;14.384;2022-10-31T05:23:23;8.90;99.90
18779;DHT22;9518;51.720;14.384;2022-10-31T05:25:50;8.90;99.90
18779;DHT22;9518;51.720;14.384;2022-10-31T05:28:17;8.80;99.90
18779;DHT22;9518;51.720;14.384;2022-10-31T05:30:44;8.90;99.90
18779;DHT22;9518;51.720;14.384;2022-10-31T05:33:11;8.80;99.90
18779;DHT22;9518;51.720;14.384;2022-10-31T05:35:39;8.80;99.90
18779;DHT22;9518;51.720;14.384;2022-10-31T05:38:10;8.80;99.90
18779;DHT22;9518;51.720;14.384;2022-10-31T05:40:40;8.70;99.90
18779;DHT22;9518;51.720;14.384;2022-10-31T05:43:07;8.70;99.90
18779;DHT22;9518;51.720;14.384;2022-10-31T05:45:34;8.70;99.90
18779;DHT22;9518;51.720;14.384;2022-10-31T05:48:01;8.70;99.90
18779;DHT22;9518;51.720;14.384;2022-10-31T05:50:29;8.70;99.90
18779;DHT22;9518;51.720;14.384;2022-10-31T05:52:59;8.80;99.90
18779;DHT22;9518;51.720;14.384;2022-10-31T05:55:46;8.80;99.90
18779;DHT22;9518;51.720;14.384;2022-10-31T05:58:12;8.80;99.90
18779;DHT22;9518;51.720;14.384;2022-10-31T06:00:42;8.80;99.90
18779;DHT22;9518;51.720;14.384;2022-10-31T06:03:12;8.70;99.90
18779;DHT22;9518;51.720;14.384;2022-10-31T06:05:39;8.60;99.90
18779;DHT22;9518;51.720;14.384;2022-10-31T06:08:07;8.60;99.90
18779;DHT22;9518;51.720;14.384;2022-10-31T06:10:36;8.70;99.90
18779;DHT22;9518;51.720;14.384;2022-10-31T06:13:03;8.70;99.90
18779;DHT22;9518;51.720;14.384;2022-10-31T06:15:32;8.80;99.90
18779;DHT22;9518;51.720;14.384;2022-10-31T06:18:00;8.80;99.90
18779;DHT22;9518;51.720;14.384;2022-10-31T06:20:29;8.80;99.90
18779;DHT22;9518;51.720;14.384;2022-10-31T06:22:56;8.80;99.90
18779;DHT22;9518;51.720;14.384;2022-10-31T06:25:25;8.90;99.90
18779;DHT22;9518;51.720;14.384;2022-10-31T06:27:54;8.90;99.90
18779;DHT22;9518;51.720;14.384;2022-10-31T06:30:21;8.90;99.90
18779;DHT22;9518;51.720;14.384;2022-10-31T06:32:48;8.90;99.90
18779;DHT22;9518;51.720;14.384;2022-10-31T06:35:15;8.90;99.90
18779;DHT22;9518;51.720;14.384;2022-10-31T06:37:42;9.00;99.90
18779;DHT22;9518;51.720;14.384;2022-10-31T06:40:10;9.00;99.90
18779;DHT22;9518;51.720;14.384;2022-10-31T06:42:42;9.00;99.90
18779;DHT22;9518;51.720;14.384;2022-10-31T06:45:09;9.00;99.90
18779;DHT22;9518;51.720;14.384;2022-10-31T06:47:35;9.10;99.90
18779;DHT22;9518;51.720;14.384;2022-10-31T06:50:03;9.10;99.90
18779;DHT22;9518;51.720;14.384;2022-10-31T06:52:29;9.10;99.90
18779;DHT22;9518;51.720;14.384;2022-10-31T06:54:56;9.20;99.90
18779;DHT22;9518;51.720;14.384;2022-10-31T06:57:23;9.30;99.90
18779;DHT22;9518;51.720;14.384;2022-10-31T06:59:51;9.40;99.90
18779;DHT22;9518;51.720;14.384;2022-10-31T07:02:21;9.40;99.90
18779;DHT22;9518;51.720;14.384;2022-10-31T07:04:50;9.40;99.90
18779;DHT22;9518;51.720;14.384;2022-10-31T07:07:16;9.50;99.90
18779;DHT22;9518;51.720;14.384;2022-10-31T07:09:46;9.60;99.90
18779;DHT22;9518;51.720;14.384;2022-10-31T07:12:16;9.80;99.90
18779;DHT22;9518;51.720;14.384;2022-10-31T07:14:46;9.70;99.90
18779;DHT22;9518;51.720;14.384;2022-10-31T07:17:14;9.80;99.90
18779;DHT22;9518;51.720;14.384;2022-10-31T07:19:41;10.00;99.90
18779;DHT22;9518;51.720;14.384;2022-10-31T07:22:08;10.10;99.90
18779;DHT22;9518;51.720;14.384;2022-10-31T07:24:34;10.20;99.90
18779;DHT22;9518;51.720;14.384;2022-10-31T07:27:01;10.30;99.90
18779;DHT22;9518;51.720;14.384;2022-10-31T07:29:28;10.40;99.90
18779;DHT22;9518;51.720;14.384;2022-10-31T07:31:55;10.50;99.90
18779;DHT22;9518;51.720;14.384;2022-10-31T07:34:23;10.60;99.90
18779;DHT22;9518;51.720;14.384;2022-10-31T07:36:50;10.60;99.90
18779;DHT22;9518;51.720;14.384;2022-10-31T07:39:17;10.60;99.90
18779;DHT22;9518;51.720;14.384;2022-10-31T07:41:44;10.80;99.90
18779;DHT22;9518;51.720;14.384;2022-10-31T07:44:11;11.00;99.90
18779;DHT22;9518;51.720;14.384;2022-10-31T07:46:38;11.10;99.90
18779;DHT22;9518;51.720;14.384;2022-10-31T07:49:05;11.20;99.90
18779;DHT22;9518;51.720;14.384;2022-10-31T07:51:33;11.30;99.90
18779;DHT22;9518;51.720;14.384;2022-10-31T07:54:00;11.40;99.90
18779;DHT22;9518;51.720;14.384;2022-10-31T07:56:27;11.50;99.90
18779;DHT22;9518;51.720;14.384;2022-10-31T07:58:54;11.70;99.90
18779;DHT22;9518;51.720;14.384;2022-10-31T08:01:21;11.90;99.90
18779;DHT22;9518;51.720;14.384;2022-10-31T08:03:48;12.00;99.90
18779;DHT22;9518;51.720;14.384;2022-10-31T08:06:14;12.10;99.90
18779;DHT22;9518;51.720;14.384;2022-10-31T08:08:43;12.30;99.90
18779;DHT22;9518;51.720;14.384;2022-10-31T08:11:09;12.50;99.90
18779;DHT22;9518;51.720;14.384;2022-10-31T08:13:36;12.70;99.90
18779;DHT22;9518;51.720;14.384;2022-10-31T08:16:04;12.80;99.90
18779;DHT22;9518;51.720;14.384;2022-10-31T08:18:32;12.90;99.90
18779;DHT22;9518;51.720;14.384;2022-10-31T08:20:59;13.10;99.90
18779;DHT22;9518;51.720;14.384;2022-10-31T08:23:26;13.20;99.90
18779;DHT22;9518;51.720;14.384;2022-10-31T08:25:54;13.30;99.90
18779;DHT22;9518;51.720;14.384;2022-10-31T08:28:21;13.50;99.90
18779;DHT22;9518;51.720;14.384;2022-10-31T08:30:48;13.60;99.90
18779;DHT22;9518;51.720;14.384;2022-10-31T08:33:16;13.80;99.90
18779;DHT22;9518;51.720;14.384;2022-10-31T08:35:43;14.00;99.90
18779;DHT22;9518;51.720;14.384;2022-10-31T08:38:11;14.20;99.90
18779;DHT22;9518;51.720;14.384;2022-10-31T08:40:39;14.40;99.90
18779;DHT22;9518;51.720;14.384;2022-10-31T08:43:11;14.40;99.90
18779;DHT22;9518;51.720;14.384;2022-10-31T08:45:38;14.60;99.90
18779;DHT22;9518;51.720;14.384;2022-10-31T08:48:07;14.80;99.90
18779;DHT22;9518;51.720;14.384;2022-10-31T08:50:36;14.90;99.90
18779;DHT22;9518;51.720;14.384;2022-10-31T08:53:04;15.10;99.90
18779;DHT22;9518;51.720;14.384;2022-10-31T08:56:04;15.20;99.90
18779;DHT22;9518;51.720;14.384;2022-10-31T08:58:36;15.30;99.90
18779;DHT22;9518;51.720;14.384;2022-10-31T09:01:12;15.40;99.90
18779;DHT22;9518;51.720;14.384;2022-10-31T09:03:49;15.50;99.90
18779;DHT22;9518;51.720;14.384;2022-10-31T09:06:24;15.60;99.90
18779;DHT22;9518;51.720;14.384;2022-10-31T09:08:53;15.70;99.90
18779;DHT22;9518;51.720;14.384;2022-10-31T09:11:20;15.90;99.90
18779;DHT22;9518;51.720;14.384;2022-10-31T09:13:48;16.00;99.90
18779;DHT22;9518;51.720;14.384;2022-10-31T09:16:15;16.20;99.90
18779;DHT22;9518;51.720;14.384;2022-10-31T09:18:42;16.30;99.10
18779;DHT22;9518;51.720;14.384;2022-10-31T09:21:09;16.40;97.50
18779;DHT22;9518;51.720;14.384;2022-10-31T09:23:36;16.40;99.90
18779;DHT22;9518;51.720;14.384;2022-10-31T09:26:03;16.50;99.90
18779;DHT22;9518;51.720;14.384;2022-10-31T09:28:30;16.70;99.90
18779;DHT22;9518;51.720;14.384;2022-10-31T09:30:59;16.80;62.30
18779;DHT22;9518;51.720;14.384;2022-10-31T09:33:26;16.70;55.50
18779;DHT22;9518;51.720;14.384;2022-10-31T09:35:53;16.80;63.20
18779;DHT22;9518;51.720;14.384;2022-10-31T09:38:20;17.00;45.60
18779;DHT22;9518;51.720;14.384;2022-10-31T09:40:55;17.10;49.10
18779;DHT22;9518;51.720;14.384;2022-10-31T09:43:27;17.20;33.80
18779;DHT22;9518;51.720;14.384;2022-10-31T09:46:03;17.30;17.60
18779;DHT22;9518;51.720;14.384;2022-10-31T09:48:50;17.30;22.30
18779;DHT22;9518;51.720;14.384;2022-10-31T09:51:22;17.50;46.80
18779;DHT22;9518;51.720;14.384;2022-10-31T09:53:53;17.70;16.30
18779;DHT22;9518;51.720;14.384;2022-10-31T09:56:25;17.80;1.00
18779;DHT22;9518;51.720;14.384;2022-10-31T09:58:55;17.80;34.10
18779;DHT22;9518;51.720;14.384;2022-10-31T10:01:33;18.10;1.00
18779;DHT22;9518;51.720;14.384;2022-10-31T10:04:09;18.20;1.00
18779;DHT22;9518;51.720;14.384;2022-10-31T10:06:41;18.30;1.00
18779;DHT22;9518;51.720;14.384;2022-10-31T10:09:10;18.50;1.00
18779;DHT22;9518;51.720;14.384;2022-10-31T10:11:46;18.50;1.00
18779;DHT22;9518;51.720;14.384;2022-10-31T10:14:28;18.50;1.00
18779;DHT22;9518;51.720;14.384;2022-10-31T10:17:09;18.30;1.00
18779;DHT22;9518;51.720;14.384;2022-10-31T10:19:59;18.60;1.00
18779;DHT22;9518;51.720;14.384;2022-10-31T10:22:36;19.00;1.00
18779;DHT22;9518;51.720;14.384;2022-10-31T10:25:15;19.10;1.00
18779;DHT22;9518;51.720;14.384;2022-10-31T10:27:49;18.70;1.00
18779;DHT22;9518;51.720;14.384;2022-10-31T10:30:18;18.80;1.00
18779;DHT22;9518;51.720;14.384;2022-10-31T10:32:49;18.60;1.00
18779;DHT22;9518;51.720;14.384;2022-10-31T10:35:23;18.30;1.00
18779;DHT22;9518;51.720;14.384;2022-10-31T10:37:53;18.20;1.00
18779;DHT22;9518;51.720;14.384;2022-10-31T10:40:24;18.10;1.00
18779;DHT22;9518;51.720;14.384;2022-10-31T10:43:01;18.10;1.00
18779;DHT22;9518;51.720;14.384;2022-10-31T10:45:51;18.10;99.90
18779;DHT22;9518;51.720;14.384;2022-10-31T10:48:42;18.20;1.00
18779;DHT22;9518;51.720;14.384;2022-10-31T10:51:20;18.20;1.00
18779;DHT22;9518;51.720;14.384;2022-10-31T10:54:00;18.20;1.00
18779;DHT22;9518;51.720;14.384;2022-10-31T10:56:41;18.30;1.00
18779;DHT22;9518;51.720;14.384;2022-10-31T10:59:13;18.30;1.00
18779;DHT22;9518;51.720;14.384;2022-10-31T11:01:43;18.40;1.00
18779;DHT22;9518;51.720;14.384;2022-10-31T11:04:26;18.60;1.00
18779;DHT22;9518;51.720;14.384;2022-10-31T11:06:59;18.60;1.00
18779;DHT22;9518;51.720;14.384;2022-10-31T11:09:26;18.60;1.00
18779;DHT22;9518;51.720;14.384;2022-10-31T11:11:54;18.70;1.00
18779;DHT22;9518;51.720;14.384;2022-10-31T11:14:22;18.70;1.00
18779;DHT22;9518;51.720;14.384;2022-10-31T11:16:54;18.80;1.00
18779;DHT22;9518;51.720;14.384;2022-10-31T11:19:24;18.90;1.00
18779;DHT22;9518;51.720;14.384;2022-10-31T11:21:52;18.90;1.00
18779;DHT22;9518;51.720;14.384;2022-10-31T11:24:21;18.80;1.00
18779;DHT22;9518;51.720;14.384;2022-10-31T11:26:49;18.80;1.00
18779;DHT22;9518;51.720;14.384;2022-10-31T11:29:20;18.80;1.00
18779;DHT22;9518;51.720;14.384;2022-10-31T11:31:48;18.90;1.00
18779;DHT22;9518;51.720;14.384;2022-10-31T11:34:29;18.90;1.00
18779;DHT22;9518;51.720;14.384;2022-10-31T11:37:02;18.90;1.00
18779;DHT22;9518;51.720;14.384;2022-10-31T11:39:30;19.00;1.00
18779;DHT22;9518;51.720;14.384;2022-10-31T11:42:01;19.10;1.00
18779;DHT22;9518;51.720;14.384;2022-10-31T11:44:30;19.10;1.00
18779;DHT22;9518;51.720;14.384;2022-10-31T11:46:59;19.00;1.00
18779;DHT22;9518;51.720;14.384;2022-10-31T11:49:31;18.90;1.00
18779;DHT22;9518;51.720;14.384;2022-10-31T11:52:02;18.90;1.00
18779;DHT22;9518;51.720;14.384;2022-10-31T11:54:32;19.00;1.00
18779;DHT22;9518;51.720;14.384;2022-10-31T11:57:02;19.20;1.00
18779;DHT22;9518;51.720;14.384;2022-10-31T11:59:31;19.30;1.00
18779;DHT22;9518;51.720;14.384;2022-10-31T12:01:59;19.20;1.00
18779;DHT22;9518;51.720;14.384;2022-10-31T12:04:37;19.30;1.00
18779;DHT22;9518;51.720;14.384;2022-10-31T12:07:05;19.50;1.00
18779;DHT22;9518;51.720;14.384;2022-10-31T12:09:34;19.50;1.00
18779;DHT22;9518;51.720;14.384;2022-10-31T12:12:21;19.60;1.00
18779;DHT22;9518;51.720;14.384;2022-10-31T12:15:00;19.60;1.00
18779;DHT22;9518;51.720;14.384;2022-10-31T12:17:35;19.50;1.00
18779;DHT22;9518;51.720;14.384;2022-10-31T12:20:16;19.50;1.00
18779;DHT22;9518;51.720;14.384;2022-10-31T12:22:54;19.60;1.00
18779;DHT22;9518;51.720;14.384;2022-10-31T12:25:31;19.70;99.90
18779;DHT22;9518;51.720;14.384;2022-10-31T12:28:07;19.70;99.90
18779;DHT22;9518;51.720;14.384;2022-10-31T12:30:50;19.70;1.00
18779;DHT22;9518;51.720;14.384;2022-10-31T12:33:34;19.80;1.00
18779;DHT22;9518;51.720;14.384;2022-10-31T12:36:21;19.80;1.00
18779;DHT22;9518;51.720;14.384;2022-10-31T12:39:01;19.70;1.00
18779;DHT22;9518;51.720;14.384;2022-10-31T12:41:42;19.70;99.90
18779;DHT22;9518;51.720;14.384;2022-10-31T12:44:18;19.80;99.90
18779;DHT22;9518;51.720;14.384;2022-10-31T12:46:57;19.70;99.90
18779;DHT22;9518;51.720;14.384;2022-10-31T12:49:46;19.70;1.00
18779;DHT22;9518;51.720;14.384;2022-10-31T12:52:30;19.70;1.00
18779;DHT22;9518;51.720;14.384;2022-10-31T12:55:23;19.70;99.90
18779;DHT22;9518;51.720;14.384;2022-10-31T12:57:56;19.60;1.00
18779;DHT22;9518;51.720;14.384;2022-10-31T13:00:26;19.70;1.00
18779;DHT22;9518;51.720;14.384;2022-10-31T13:02:56;19.80;99.90
18779;DHT22;9518;51.720;14.384;2022-10-31T13:05:29;19.80;99.90
18779;DHT22;9518;51.720;14.384;2022-10-31T13:08:02;19.90;99.90
18779;DHT22;9518;51.720;14.384;2022-10-31T13:10:33;19.90;99.90
18779;DHT22;9518;51.720;14.384;2022-10-31T13:13:06;19.80;99.90
18779;DHT22;9518;51.720;14.384;2022-10-31T13:15:45;19.80;1.00
18779;DHT22;9518;51.720;14.384;2022-10-31T13:18:25;19.70;99.90
18779;DHT22;9518;51.720;14.384;2022-10-31T13:20:54;19.80;1.00
18779;DHT22;9518;51.720;14.384;2022-10-31T13:23:28;19.70;1.00
18779;DHT22;9518;51.720;14.384;2022-10-31T13:25:58;19.70;1.00
18779;DHT22;9518;51.720;14.384;2022-10-31T13:28:31;19.70;1.00
18779;DHT22;9518;51.720;14.384;2022-10-31T13:31:00;19.60;1.00
18779;DHT22;9518;51.720;14.384;2022-10-31T13:33:29;19.60;1.00
18779;DHT22;9518;51.720;14.384;2022-10-31T13:36:08;19.60;1.00
18779;DHT22;9518;51.720;14.384;2022-10-31T13:38:46;19.50;1.00
18779;DHT22;9518;51.720;14.384;2022-10-31T13:41:31;19.50;1.00
18779;DHT22;9518;51.720;14.384;2022-10-31T13:44:02;19.50;1.00
18779;DHT22;9518;51.720;14.384;2022-10-31T13:46:38;19.60;1.00
18779;DHT22;9518;51.720;14.384;2022-10-31T13:49:25;19.50;1.00
18779;DHT22;9518;51.720;14.384;2022-10-31T13:51:53;19.50;1.00
18779;DHT22;9518;51.720;14.384;2022-10-31T13:54:34;19.30;1.00
18779;DHT22;9518;51.720;14.384;2022-10-31T13:57:01;19.20;1.00
18779;DHT22;9518;51.720;14.384;2022-10-31T13:59:36;19.20;1.00
18779;DHT22;9518;51.720;14.384;2022-10-31T14:02:14;19.20;1.00
18779;DHT22;9518;51.720;14.384;2022-10-31T14:04:46;19.20;1.00
18779;DHT22;9518;51.720;14.384;2022-10-31T14:07:16;19.30;1.00
18779;DHT22;9518;51.720;14.384;2022-10-31T14:09:53;19.20;1.00
18779;DHT22;9518;51.720;14.384;2022-10-31T14:12:24;19.10;99.90
18779;DHT22;9518;51.720;14.384;2022-10-31T14:14:56;19.10;1.00
18779;DHT22;9518;51.720;14.384;2022-10-31T14:17:25;19.00;99.90
18779;DHT22;9518;51.720;14.384;2022-10-31T14:20:02;18.80;1.00
18779;DHT22;9518;51.720;14.384;2022-10-31T14:22:30;18.80;58.10
18779;DHT22;9518;51.720;14.384;2022-10-31T14:24:59;18.90;99.90
18779;DHT22;9518;51.720;14.384;2022-10-31T14:27:47;18.80;99.90
18779;DHT22;9518;51.720;14.384;2022-10-31T14:30:16;18.50;1.00
18779;DHT22;9518;51.720;14.384;2022-10-31T14:32:44;18.40;1.00
18779;DHT22;9518;51.720;14.384;2022-10-31T14:35:15;18.10;99.90
18779;DHT22;9518;51.720;14.384;2022-10-31T14:38:04;18.00;99.90
18779;DHT22;9518;51.720;14.384;2022-10-31T14:40:42;17.90;1.00
18779;DHT22;9518;51.720;14.384;2022-10-31T14:43:43;17.80;1.00
18779;DHT22;9518;51.720;14.384;2022-10-31T14:46:18;17.60;99.90
18779;DHT22;9518;51.720;14.384;2022-10-31T14:49:00;17.40;1.00
18779;DHT22;9518;51.720;14.384;2022-10-31T14:51:35;17.30;1.00
18779;DHT22;9518;51.720;14.384;2022-10-31T14:54:04;17.20;1.00
18779;DHT22;9518;51.720;14.384;2022-10-31T14:56:35;17.10;1.00
18779;DHT22;9518;51.720;14.384;2022-10-31T14:59:09;17.00;99.90
18779;DHT22;9518;51.720;14.384;2022-10-31T15:01:39;16.90;1.00
18779;DHT22;9518;51.720;14.384;2022-10-31T15:04:12;16.80;1.00
18779;DHT22;9518;51.720;14.384;2022-10-31T15:06:42;16.60;99.90
18779;DHT22;9518;51.720;14.384;2022-10-31T15:09:23;16.40;99.90
18779;DHT22;9518;51.720;14.384;2022-10-31T15:11:51;16.10;1.00
18779;DHT22;9518;51.720;14.384;2022-10-31T15:14:23;15.90;1.00
18779;DHT22;9518;51.720;14.384;2022-10-31T15:16:51;15.70;1.00
18779;DHT22;9518;51.720;14.384;2022-10-31T15:19:23;15.60;1.00
18779;DHT22;9518;51.720;14.384;2022-10-31T15:21:51;15.40;1.00
18779;DHT22;9518;51.720;14.384;2022-10-31T15:24:19;15.20;1.00
18779;DHT22;9518;51.720;14.384;2022-10-31T15:26:49;15.10;1.00
18779;DHT22;9518;51.720;14.384;2022-10-31T15:29:20;14.90;17.70
18779;DHT22;9518;51.720;14.384;2022-10-31T15:31:52;14.80;86.40
18779;DHT22;9518;51.720;14.384;2022-10-31T15:34:27;14.60;99.90
18779;DHT22;9518;51.720;14.384;2022-10-31T15:36:54;14.50;99.90
18779;DHT22;9518;51.720;14.384;2022-10-31T15:39:21;14.40;99.90
18779;DHT22;9518;51.720;14.384;2022-10-31T15:41:50;14.30;99.90
18779;DHT22;9518;51.720;14.384;2022-10-31T15:44:24;14.30;99.90
18779;DHT22;9518;51.720;14.384;2022-10-31T15:46:54;14.20;99.90
18779;DHT22;9518;51.720;14.384;2022-10-31T15:49:28;14.10;99.90
18779;DHT22;9518;51.720;14.384;2022-10-31T15:51:56;13.90;99.90
18779;DHT22;9518;51.720;14.384;2022-10-31T15:54:25;13.80;99.90
18779;DHT22;9518;51.720;14.384;2022-10-31T15:56:52;13.60;99.90
18779;DHT22;9518;51.720;14.384;2022-10-31T15:59:23;13.50;99.90
18779;DHT22;9518;51.720;14.384;2022-10-31T16:02:01;13.40;99.90
18779;DHT22;9518;51.720;14.384;2022-10-31T16:04:29;13.30;99.90
18779;DHT22;9518;51.720;14.384;2022-10-31T16:06:59;13.20;99.90
18779;DHT22;9518;51.720;14.384;2022-10-31T16:09:27;13.10;99.90
18779;DHT22;9518;51.720;14.384;2022-10-31T16:11:56;13.00;99.90
18779;DHT22;9518;51.720;14.384;2022-10-31T16:14:26;13.00;99.90
18779;DHT22;9518;51.720;14.384;2022-10-31T16:16:55;13.00;99.90
18779;DHT22;9518;51.720;14.384;2022-10-31T16:19:25;12.90;99.90
18779;DHT22;9518;51.720;14.384;2022-10-31T16:21:55;12.80;99.90
18779;DHT22;9518;51.720;14.384;2022-10-31T16:24:25;12.70;99.90
18779;DHT22;9518;51.720;14.384;2022-10-31T16:26:57;12.60;99.90
18779;DHT22;9518;51.720;14.384;2022-10-31T16:29:33;12.50;99.90
18779;DHT22;9518;51.720;14.384;2022-10-31T16:32:00;12.40;99.90
18779;DHT22;9518;51.720;14.384;2022-10-31T16:34:28;12.30;99.90
18779;DHT22;9518;51.720;14.384;2022-10-31T16:36:55;12.30;99.90
18779;DHT22;9518;51.720;14.384;2022-10-31T16:39:22;12.40;99.90
18779;DHT22;9518;51.720;14.384;2022-10-31T16:41:51;12.40;99.90
18779;DHT22;9518;51.720;14.384;2022-10-31T16:44:21;12.30;99.90
18779;DHT22;9518;51.720;14.384;2022-10-31T16:47:11;12.20;99.90
18779;DHT22;9518;51.720;14.384;2022-10-31T16:49:38;12.10;99.90
18779;DHT22;9518;51.720;14.384;2022-10-31T16:52:05;12.10;99.90
18779;DHT22;9518;51.720;14.384;2022-10-31T16:54:32;12.00;99.90
18779;DHT22;9518;51.720;14.384;2022-10-31T16:57:00;12.00;99.90
18779;DHT22;9518;51.720;14.384;2022-10-31T16:59:27;11.90;99.90
18779;DHT22;9518;51.720;14.384;2022-10-31T17:01:57;11.90;99.90
18779;DHT22;9518;51.720;14.384;2022-10-31T17:04:24;11.90;99.90
18779;DHT22;9518;51.720;14.384;2022-10-31T17:06:51;11.90;99.90
18779;DHT22;9518;51.720;14.384;2022-10-31T17:09:18;11.80;99.90
18779;DHT22;9518;51.720;14.384;2022-10-31T17:11:47;11.80;99.90
18779;DHT22;9518;51.720;14.384;2022-10-31T17:14:14;11.80;99.90
18779;DHT22;9518;51.720;14.384;2022-10-31T17:16:41;11.70;99.90
18779;DHT22;9518;51.720;14.384;2022-10-31T17:19:11;11.70;99.90
18779;DHT22;9518;51.720;14.384;2022-10-31T17:21:38;11.70;99.90
18779;DHT22;9518;51.720;14.384;2022-10-31T17:24:07;11.70;99.90
18779;DHT22;9518;51.720;14.384;2022-10-31T17:26:36;11.60;99.90
18779;DHT22;9518;51.720;14.384;2022-10-31T17:29:03;11.60;99.90
18779;DHT22;9518;51.720;14.384;2022-10-31T17:31:31;11.60;99.90
18779;DHT22;9518;51.720;14.384;2022-10-31T17:33:59;11.60;99.90
18779;DHT22;9518;51.720;14.384;2022-10-31T17:36:29;11.50;99.90
18779;DHT22;9518;51.720;14.384;2022-10-31T17:38:56;11.60;99.90
18779;DHT22;9518;51.720;14.384;2022-10-31T17:41:23;11.60;99.90
18779;DHT22;9518;51.720;14.384;2022-10-31T17:43:54;11.50;99.90
18779;DHT22;9518;51.720;14.384;2022-10-31T17:46:21;11.40;99.90
18779;DHT22;9518;51.720;14.384;2022-10-31T17:48:48;11.30;99.90
18779;DHT22;9518;51.720;14.384;2022-10-31T17:51:15;11.30;99.90
18779;DHT22;9518;51.720;14.384;2022-10-31T17:53:43;11.30;99.90
18779;DHT22;9518;51.720;14.384;2022-10-31T17:56:10;11.40;99.90
18779;DHT22;9518;51.720;14.384;2022-10-31T17:58:37;11.20;99.90
18779;DHT22;9518;51.720;14.384;2022-10-31T18:01:07;11.30;99.90
18779;DHT22;9518;51.720;14.384;2022-10-31T18:03:34;11.30;99.90
18779;DHT22;9518;51.720;14.384;2022-10-31T18:06:01;11.20;99.90
18779;DHT22;9518;51.720;14.384;2022-10-31T18:08:30;11.20;99.90
18779;DHT22;9518;51.720;14.384;2022-10-31T18:10:59;11.10;99.90
18779;DHT22;9518;51.720;14.384;2022-10-31T18:13:26;11.00;99.90
18779;DHT22;9518;51.720;14.384;2022-10-31T18:15:53;11.00;99.90
18779;DHT22;9518;51.720;14.384;2022-10-31T18:18:20;10.90;99.90
18779;DHT22;9518;51.720;14.384;2022-10-31T18:20:47;10.80;99.90
18779;DHT22;9518;51.720;14.384;2022-10-31T18:23:14;10.70;99.90
18779;DHT22;9518;51.720;14.384;2022-10-31T18:25:41;10.70;99.90
18779;DHT22;9518;51.720;14.384;2022-10-31T18:28:10;10.80;99.90
18779;DHT22;9518;51.720;14.384;2022-10-31T18:30:40;10.70;99.90
18779;DHT22;9518;51.720;14.384;2022-10-31T18:33:07;11.00;99.90
18779;DHT22;9518;51.720;14.384;2022-10-31T18:35:35;11.00;99.90
18779;DHT22;9518;51.720;14.384;2022-10-31T18:38:06;11.10;99.90
18779;DHT22;9518;51.720;14.384;2022-10-31T18:40:34;11.10;99.90
18779;DHT22;9518;51.720;14.384;2022-10-31T18:43:02;11.00;99.90
18779;DHT22;9518;51.720;14.384;2022-10-31T18:45:30;10.90;99.90
18779;DHT22;9518;51.720;14.384;2022-10-31T18:47:57;10.80;99.90
18779;DHT22;9518;51.720;14.384;2022-10-31T18:50:24;10.80;99.90
18779;DHT22;9518;51.720;14.384;2022-10-31T18:52:51;10.70;99.90
18779;DHT22;9518;51.720;14.384;2022-10-31T18:55:18;10.70;99.90
18779;DHT22;9518;51.720;14.384;2022-10-31T18:57:45;10.70;99.90
18779;DHT22;9518;51.720;14.384;2022-10-31T19:00:12;10.70;99.90
18779;DHT22;9518;51.720;14.384;2022-10-31T19:02:41;10.60;99.90
18779;DHT22;9518;51.720;14.384;2022-10-31T19:05:08;10.60;99.90
18779;DHT22;9518;51.720;14.384;2022-10-31T19:07:42;10.70;99.90
18779;DHT22;9518;51.720;14.384;2022-10-31T19:10:09;10.60;99.90
18779;DHT22;9518;51.720;14.384;2022-10-31T19:12:36;10.60;99.90
18779;DHT22;9518;51.720;14.384;2022-10-31T19:15:03;10.60;99.90
18779;DHT22;9518;51.720;14.384;2022-10-31T19:17:31;10.60;99.90
18779;DHT22;9518;51.720;14.384;2022-10-31T19:20:07;10.60;99.90
18779;DHT22;9518;51.720;14.384;2022-10-31T19:22:46;10.60;99.90
18779;DHT22;9518;51.720;14.384;2022-10-31T19:25:22;10.70;99.90
18779;DHT22;9518;51.720;14.384;2022-10-31T19:27:49;10.70;99.90
18779;DHT22;9518;51.720;14.384;2022-10-31T19:30:16;10.60;99.90
18779;DHT22;9518;51.720;14.384;2022-10-31T19:32:43;10.60;99.90